Time;durP1;ratioP1;P1;durP2;ratioP2;P2;SDS_P1;SDS_P2;PMS_P1;PMS_P2;Temp;Humidity;BMP_temperature;BMP_pressure;BME280_temperature;BME280_humidity;BME280_pressure;Samples;Min_cycle;Max_cycle;Signal;HPM_P1;HPM_P2
2023/08/10 00:00:54;;;;;;;2.47;1.80;;;;;;;18.69;nan;61580.41;5012710;28;20613;-62
2023/08/10 00:03:19;;;;;;;1.92;1.70;;;;;;;19.44;nan;61542.53;5012181;28;20168;-62
2023/08/10 00:05:44;;;;;;;2.38;1.77;;;;;;;19.49;nan;61579.84;5012002;28;20548;-62
2023/08/10 00:08:10;;;;;;;3.85;1.83;;;;;;;19.32;nan;61504.16;5012095;28;20263;-63
2023/08/10 00:10:35;;;;;;;2.70;1.85;;;;;;;19.12;nan;61616.19;5012227;28;20646;-66
2023/08/10 00:13:01;;;;;;;2.42;1.85;;;;;;;19.33;nan;61531.19;5010801;28;20569;-63
2023/08/10 00:15:26;;;;;;;2.17;1.63;;;;;;;19.26;nan;61538.25;5011923;28;20175;-64
2023/08/10 00:17:52;;;;;;;2.95;1.83;;;;;;;19.20;nan;61521.66;5011931;28;20298;-62
2023/08/10 00:20:17;;;;;;;2.95;1.65;;;;;;;19.21;nan;61574.03;5011923;28;20256;-61
2023/08/10 00:22:43;;;;;;;1.92;1.60;;;;;;;19.08;nan;61497.72;5012014;28;20187;-62
2023/08/10 00:25:08;;;;;;;2.55;1.95;;;;;;;19.30;nan;61501.88;5011910;28;20709;-63
2023/08/10 00:27:35;;;;;;;2.03;1.70;;;;;;;19.20;nan;61630.44;5011408;28;20236;-62
2023/08/10 00:30:00;;;;;;;2.30;1.80;;;;;;;19.46;nan;61586.84;5012369;28;20203;-64
2023/08/10 00:32:26;;;;;;;2.63;1.85;;;;;;;19.51;nan;61657.28;5011633;28;20656;-64
2023/08/10 00:34:51;;;;;;;2.53;1.90;;;;;;;19.34;nan;61547.28;5015625;28;20203;-63
2023/08/10 00:37:17;;;;;;;2.30;1.77;;;;;;;19.59;nan;61647.63;5015804;28;20266;-63
2023/08/10 00:39:42;;;;;;;3.05;2.10;;;;;;;19.60;nan;61565.84;5015700;28;20298;-63
2023/08/10 00:42:08;;;;;;;2.08;1.80;;;;;;;19.47;nan;61556.31;5015283;28;20579;-65
2023/08/10 00:44:34;;;;;;;2.28;1.77;;;;;;;19.49;nan;61548.75;5015651;28;20175;-64
2023/08/10 00:47:00;;;;;;;2.28;2.08;;;;;;;19.48;nan;61555.41;5015652;28;20639;-62
2023/08/10 00:49:26;;;;;;;2.63;2.20;;;;;;;19.42;nan;61502.50;5015820;28;20168;-63
2023/08/10 00:51:52;;;;;;;3.05;2.00;;;;;;;19.47;nan;61536.13;5015478;28;20553;-62
2023/08/10 00:54:17;;;;;;;3.30;2.13;;;;;;;19.48;nan;61598.88;5015492;28;20179;-62
2023/08/10 00:56:42;;;;;;;3.10;2.30;;;;;;;19.32;nan;61638.88;5013915;28;20191;-64
2023/08/10 00:59:08;;;;;;;3.53;2.40;;;;;;;19.55;nan;61534.81;5015879;28;20180;-65
2023/08/10 01:01:34;;;;;;;2.10;1.90;;;;;;;19.55;nan;61565.34;5015476;28;20179;-61
2023/08/10 01:03:59;;;;;;;3.45;2.05;;;;;;;19.27;nan;61524.41;5015367;28;20698;-62
2023/08/10 01:07:20;;;;;;;2.83;2.05;;;;;;;19.44;nan;61602.13;5015378;28;20176;-64
2023/08/10 01:10:09;;;;;;;2.65;1.63;;;;;;;19.16;nan;61643.47;4973801;28;20308;-64
2023/08/10 01:12:49;;;;;;;1.70;1.55;;;;;;;19.20;nan;61651.16;5013017;28;20266;-63
2023/08/10 01:15:40;;;;;;;1.67;1.58;;;;;;;19.40;nan;61549.47;5015101;28;20158;-63
2023/08/10 01:18:13;;;;;;;2.25;1.60;;;;;;;19.44;nan;61784.09;5015629;28;20728;-64
2023/08/10 01:20:41;;;;;;;2.53;1.70;;;;;;;19.48;nan;61531.50;5015505;28;20199;-64
2023/08/10 01:23:39;;;;;;;2.80;1.80;;;;;;;19.52;nan;61608.59;5015080;28;20183;-62
2023/08/10 01:26:05;;;;;;;2.03;1.65;;;;;;;19.46;nan;61566.09;5015242;28;20694;-63
2023/08/10 01:28:33;;;;;;;2.30;1.80;;;;;;;19.52;nan;61585.28;5015247;28;20227;-64
2023/08/10 01:30:59;;;;;;;2.22;1.77;;;;;;;19.39;nan;61561.31;5015006;28;20250;-63
2023/08/10 01:33:26;;;;;;;1.88;1.70;;;;;;;19.31;nan;61657.91;5015172;28;20202;-63
2023/08/10 01:35:52;;;;;;;1.88;1.50;;;;;;;18.39;nan;61565.63;5014843;28;20180;-62
2023/08/10 01:38:17;;;;;;;2.28;1.77;;;;;;;19.37;nan;61584.38;5014575;28;20613;-64
2023/08/10 01:40:43;;;;;;;1.80;1.70;;;;;;;18.67;nan;61576.13;5014559;28;20572;-63
2023/08/10 01:43:08;;;;;;;2.00;1.60;;;;;;;19.14;nan;61481.22;5014990;28;20276;-63
2023/08/10 01:45:34;;;;;;;1.85;1.70;;;;;;;19.13;nan;61490.44;5014301;28;20168;-61
2023/08/10 01:48:04;;;;;;;1.95;1.67;;;;;;;19.27;nan;61529.00;5014684;28;20176;-63
2023/08/10 01:50:33;;;;;;;2.25;1.70;;;;;;;19.29;nan;61529.25;5014417;28;20199;-62
2023/08/10 01:53:08;;;;;;;3.30;1.85;;;;;;;19.34;nan;61630.78;5014226;28;20176;-64
2023/08/10 01:55:34;;;;;;;2.03;1.70;;;;;;;19.39;nan;61540.56;5014758;28;20208;-65
2023/08/10 01:58:00;;;;;;;2.42;1.70;;;;;;;19.24;nan;61510.06;5014108;28;20286;-63
2023/08/10 02:00:25;;;;;;;1.95;1.75;;;;;;;19.49;nan;61548.75;5013996;28;20259;-63
2023/08/10 02:02:51;;;;;;;2.13;1.73;;;;;;;19.55;nan;61609.41;5014263;28;20235;-62
2023/08/10 02:05:16;;;;;;;1.73;1.52;;;;;;;19.57;nan;61614.25;5012647;28;20179;-60
2023/08/10 02:07:42;;;;;;;2.95;1.80;;;;;;;19.59;nan;61528.41;5014392;28;20195;-61
2023/08/10 02:10:12;;;;;;;2.05;1.80;;;;;;;19.37;nan;61561.63;5014031;28;20183;-61
2023/08/10 02:12:37;;;;;;;2.20;1.65;;;;;;;19.50;nan;61518.22;5013938;28;20263;-61
2023/08/10 02:15:05;;;;;;;3.13;1.80;;;;;;;19.36;nan;61664.13;5013968;28;20200;-62
2023/08/10 02:17:35;;;;;;;2.92;2.00;;;;;;;19.49;nan;61600.03;5013830;28;20198;-64
2023/08/10 02:20:09;;;;;;;3.47;1.83;;;;;;;19.44;nan;61752.41;5013808;28;20172;-62
2023/08/10 02:22:35;;;;;;;1.85;1.75;;;;;;;19.52;nan;61803.53;5014618;28;20619;-63
2023/08/10 02:25:00;;;;;;;2.88;2.00;;;;;;;19.34;nan;61646.31;5013607;28;20549;-62
2023/08/10 02:27:25;;;;;;;1.92;1.63;;;;;;;19.38;nan;61525.91;5011919;28;20239;-62
2023/08/10 02:29:51;;;;;;;3.33;1.80;;;;;;;19.56;nan;61558.72;5012313;28;20271;-63
2023/08/10 02:32:17;;;;;;;1.90;1.70;;;;;;;19.51;nan;61535.47;5010796;28;20188;-62
2023/08/10 02:34:42;;;;;;;2.35;1.70;;;;;;;19.41;nan;61819.53;5012141;28;20176;-63
2023/08/10 02:37:08;;;;;;;2.15;1.70;;;;;;;19.48;nan;61653.31;5012072;28;20288;-62
2023/08/10 02:39:33;;;;;;;3.25;1.90;;;;;;;19.37;nan;61546.06;5012293;28;20562;-63
2023/08/10 02:41:59;;;;;;;2.15;1.67;;;;;;;19.39;nan;61641.63;5013117;28;20271;-61
2023/08/10 02:44:24;;;;;;;2.20;2.00;;;;;;;19.39;nan;61503.72;5012143;28;20210;-64
2023/08/10 02:46:50;;;;;;;3.17;1.92;;;;;;;19.38;nan;61503.16;5011959;28;20293;-65
2023/08/10 02:49:16;;;;;;;2.03;1.83;;;;;;;19.63;nan;61558.84;5010646;28;20639;-63
2023/08/10 02:51:41;;;;;;;2.17;1.80;;;;;;;19.60;nan;61576.78;5010984;28;20274;-64
2023/08/10 02:54:07;;;;;;;2.15;1.90;;;;;;;19.37;nan;61431.53;5009768;28;20624;-64
2023/08/10 02:56:32;;;;;;;4.72;1.90;;;;;;;19.54;nan;61605.69;5009270;28;20180;-64
2023/08/10 02:58:58;;;;;;;3.25;1.90;;;;;;;19.48;nan;61526.88;5009996;28;20187;-61
2023/08/10 03:01:23;;;;;;;2.05;1.73;;;;;;;19.50;nan;61562.28;5007867;28;20187;-63
2023/08/10 03:03:49;;;;;;;4.43;1.83;;;;;;;19.33;nan;61494.34;5006163;28;20207;-61
2023/08/10 03:06:14;;;;;;;2.20;1.90;;;;;;;19.52;nan;61523.66;5012426;28;20229;-61
2023/08/10 03:08:40;;;;;;;1.83;1.58;;;;;;;19.51;nan;61551.03;5013082;28;20176;-60
2023/08/10 03:11:05;;;;;;;1.85;1.67;;;;;;;19.52;nan;61538.63;5012505;28;20211;-65
2023/08/10 03:13:30;;;;;;;2.60;1.75;;;;;;;19.48;nan;61583.91;5012582;28;20184;-61
2023/08/10 03:15:56;;;;;;;2.83;2.10;;;;;;;19.47;nan;61535.56;5012838;28;20196;-62
2023/08/10 03:18:21;;;;;;;2.58;2.10;;;;;;;19.35;nan;61569.72;5011205;28;20712;-61
2023/08/10 03:20:47;;;;;;;5.03;2.25;;;;;;;19.30;nan;61504.47;5011364;28;20176;-62
2023/08/10 03:23:12;;;;;;;2.72;1.95;;;;;;;18.50;nan;61516.00;5012863;28;20259;-63
2023/08/10 03:25:38;;;;;;;3.00;2.08;;;;;;;19.36;nan;61746.47;5012579;28;20180;-63
2023/08/10 03:28:04;;;;;;;2.80;1.90;;;;;;;19.43;nan;61676.69;5011654;28;20227;-62
2023/08/10 03:30:30;;;;;;;3.72;2.00;;;;;;;19.36;nan;61518.47;5011167;28;20188;-64
2023/08/10 03:32:55;;;;;;;2.45;2.20;;;;;;;19.22;nan;61485.06;5011895;28;20181;-63
2023/08/10 03:35:20;;;;;;;2.38;1.77;;;;;;;19.23;nan;61618.31;5011605;28;20187;-64
2023/08/10 03:37:46;;;;;;;3.67;2.08;;;;;;;19.36;nan;61487.97;5012226;28;20254;-64
2023/08/10 03:40:11;;;;;;;2.45;2.22;;;;;;;19.26;nan;61621.72;5012376;28;20222;-63
2023/08/10 03:42:37;;;;;;;4.18;1.80;;;;;;;19.41;nan;61534.50;5012625;28;20180;-63
2023/08/10 03:45:02;;;;;;;7.50;1.90;;;;;;;19.18;nan;61586.16;5012413;28;20260;-63
2023/08/10 03:47:28;;;;;;;2.63;1.83;;;;;;;19.25;nan;61488.47;5011915;28;20706;-65
2023/08/10 03:49:53;;;;;;;5.03;2.40;;;;;;;19.04;nan;61428.47;5012085;28;20168;-64
2023/08/10 03:52:18;;;;;;;3.28;1.95;;;;;;;19.23;nan;61597.59;5012150;28;20733;-61
2023/08/10 03:54:44;;;;;;;2.95;2.15;;;;;;;19.09;nan;61446.50;5011910;28;20180;-62
2023/08/10 03:57:09;;;;;;;2.33;1.83;;;;;;;19.28;nan;61621.38;5012179;28;20225;-64
2023/08/10 03:59:34;;;;;;;2.40;2.08;;;;;;;19.14;nan;61602.94;5012014;28;20563;-62
2023/08/10 04:02:00;;;;;;;4.82;2.00;;;;;;;19.35;nan;61494.03;5011669;28;20170;-62
2023/08/10 04:04:25;;;;;;;2.63;1.98;;;;;;;19.37;nan;61465.22;5011666;28;20184;-64
2023/08/10 04:06:51;;;;;;;2.40;1.80;;;;;;;19.40;nan;61632.41;5011738;28;20599;-62
2023/08/10 04:09:16;;;;;;;2.67;1.95;;;;;;;19.83;nan;61814.88;5011472;28;20194;-64
2023/08/10 04:11:42;;;;;;;3.33;2.00;;;;;;;19.98;nan;61592.75;5010561;28;20184;-64
2023/08/10 04:14:07;;;;;;;2.55;2.13;;;;;;;19.96;nan;61580.69;5010667;28;20183;-64
2023/08/10 04:16:33;;;;;;;2.95;2.20;;;;;;;20.04;nan;61519.69;5010162;28;20194;-64
2023/08/10 04:18:58;;;;;;;3.20;1.90;;;;;;;20.97;nan;61989.59;5009798;28;20195;-62
2023/08/10 04:21:24;;;;;;;5.20;2.00;;;;;;;21.62;nan;61898.66;5011667;28;20179;-62
2023/08/10 04:23:50;;;;;;;2.83;2.15;;;;;;;22.12;nan;61863.88;5011651;28;20211;-62
2023/08/10 04:26:16;;;;;;;2.20;2.00;;;;;;;23.11;nan;62074.34;5011002;28;20273;-62
2023/08/10 04:28:41;;;;;;;2.45;1.90;;;;;;;24.43;nan;62090.41;5010645;28;20227;-62
2023/08/10 04:31:07;;;;;;;2.42;2.17;;;;;;;25.53;nan;62363.75;5010462;28;20183;-62
2023/08/10 04:33:33;;;;;;;3.03;1.55;;;;;;;26.72;nan;62327.03;5010783;28;20605;-63
2023/08/10 04:35:59;;;;;;;2.00;1.80;;;;;;;27.22;nan;62454.38;5009900;28;20270;-63
2023/08/10 04:38:24;;;;;;;2.45;1.75;;;;;;;27.39;nan;62502.09;5009159;28;20211;-62
2023/08/10 04:40:50;;;;;;;2.85;1.52;;;;;;;27.55;nan;62565.06;5010587;28;20500;-63
2023/08/10 04:43:15;;;;;;;2.33;1.80;;;;;;;27.67;nan;62600.38;5010949;28;20669;-64
2023/08/10 04:45:42;;;;;;;3.22;1.92;;;;;;;27.66;nan;62509.34;5010678;28;20190;-64
2023/08/10 04:48:07;;;;;;;2.17;1.75;;;;;;;27.83;nan;62620.19;5010779;28;20192;-65
2023/08/10 04:50:32;;;;;;;2.05;1.58;;;;;;;27.60;nan;62604.94;5011685;28;20627;-63
2023/08/10 04:52:58;;;;;;;2.05;1.75;;;;;;;27.39;nan;62541.50;5010322;28;20298;-65
2023/08/10 04:55:25;;;;;;;1.90;1.60;;;;;;;26.90;nan;62455.13;5010989;28;20180;-63
2023/08/10 04:57:52;;;;;;;2.35;1.80;;;;;;;27.12;nan;62505.94;5010664;28;20204;-63
2023/08/10 05:00:18;;;;;;;2.55;1.80;;;;;;;26.13;nan;62475.13;5011346;28;20176;-64
2023/08/10 05:02:43;;;;;;;2.38;1.77;;;;;;;25.97;nan;62355.28;5008003;28;20191;-62
2023/08/10 05:05:10;;;;;;;2.67;1.90;;;;;;;25.63;nan;62261.50;5010042;28;20250;-63
2023/08/10 05:07:37;;;;;;;2.08;1.85;;;;;;;25.05;nan;62178.19;5009006;28;20654;-63
2023/08/10 05:10:05;;;;;;;2.08;1.58;;;;;;;24.49;nan;62078.97;5010393;28;20180;-64
2023/08/10 05:12:31;;;;;;;3.10;2.10;;;;;;;24.47;nan;62118.47;5010375;28;20186;-64
2023/08/10 05:14:57;;;;;;;2.40;2.10;;;;;;;24.56;nan;62284.94;4960421;28;20267;-65
2023/08/10 05:17:22;;;;;;;3.20;1.92;;;;;;;24.25;nan;62059.50;5009539;28;20588;-61
2023/08/10 05:19:48;;;;;;;2.00;1.80;;;;;;;24.11;nan;62072.25;5011148;28;20188;-62
2023/08/10 05:22:13;;;;;;;2.40;2.00;;;;;;;24.12;nan;62209.75;5014173;28;20187;-63
2023/08/10 05:24:39;;;;;;;2.28;1.98;;;;;;;23.99;nan;62116.63;5014194;28;20656;-63
2023/08/10 05:27:05;;;;;;;2.47;1.88;;;;;;;23.75;nan;62157.72;5012970;28;20190;-65
2023/08/10 05:29:30;;;;;;;2.50;1.90;;;;;;;23.98;nan;62104.47;5013351;28;20184;-65
2023/08/10 05:31:56;;;;;;;1.88;1.70;;;;;;;23.59;nan;62178.03;5013265;28;20303;-65
2023/08/10 05:34:21;;;;;;;2.20;2.00;;;;;;;23.93;nan;62130.09;5013804;28;20187;-63
2023/08/10 05:36:47;;;;;;;3.78;2.00;;;;;;;24.11;nan;62236.75;5013824;28;20192;-63
2023/08/10 05:39:12;;;;;;;2.20;1.80;;;;;;;24.16;nan;62124.97;5014497;28;20598;-65
2023/08/10 05:41:38;;;;;;;3.90;1.98;;;;;;;24.41;nan;62268.41;5013359;28;20191;-63
2023/08/10 05:44:03;;;;;;;2.05;1.85;;;;;;;24.49;nan;62256.06;5013719;28;20211;-62
2023/08/10 05:46:29;;;;;;;2.08;1.88;;;;;;;24.59;nan;62160.34;5013343;28;20187;-62
2023/08/10 05:48:54;;;;;;;2.63;1.95;;;;;;;24.44;nan;62248.31;5013789;28;20271;-64
2023/08/10 05:51:20;;;;;;;2.28;1.80;;;;;;;24.24;nan;62214.47;5014057;28;20180;-62
2023/08/10 05:53:45;;;;;;;3.78;1.92;;;;;;;23.97;nan;62105.94;5013067;28;20705;-64
2023/08/10 05:56:11;;;;;;;4.07;2.00;;;;;;;24.08;nan;62207.81;5012156;28;20649;-64
2023/08/10 05:58:36;;;;;;;3.35;1.92;;;;;;;23.98;nan;62159.28;5012401;28;20204;-64
2023/08/10 06:01:03;;;;;;;3.50;2.10;;;;;;;23.73;nan;62165.28;5012477;28;20195;-64
2023/08/10 06:03:29;;;;;;;2.10;1.90;;;;;;;23.72;nan;62057.16;5012785;28;20551;-63
2023/08/10 06:05:54;;;;;;;3.55;2.20;;;;;;;23.56;nan;62047.34;5011561;28;20172;-63
2023/08/10 06:08:20;;;;;;;3.38;2.38;;;;;;;23.62;nan;62179.44;5011680;28;20279;-63
2023/08/10 06:10:49;;;;;;;2.70;2.42;;;;;;;23.60;nan;62108.72;5010736;28;20188;-62
2023/08/10 06:13:17;;;;;;;3.58;2.10;;;;;;;23.53;nan;61983.38;5011695;28;20184;-64
2023/08/10 06:15:46;;;;;;;2.88;2.28;;;;;;;23.41;nan;62074.59;5012138;28;20194;-65
2023/08/10 06:18:13;;;;;;;2.50;2.13;;;;;;;23.24;nan;62130.88;5012363;28;20213;-63
2023/08/10 06:20:38;;;;;;;3.42;2.05;;;;;;;23.40;nan;62023.34;5011901;28;20639;-65
2023/08/10 06:23:05;;;;;;;3.35;2.50;;;;;;;23.37;nan;62020.50;5011941;28;20275;-64
2023/08/10 06:25:30;;;;;;;5.47;3.20;;;;;;;23.28;nan;62023.88;5011554;28;20658;-64
2023/08/10 06:27:57;;;;;;;3.42;2.40;;;;;;;23.10;nan;62099.84;5010402;28;20226;-65
2023/08/10 06:30:23;;;;;;;2.97;2.42;;;;;;;23.42;nan;62026.19;5011743;28;20183;-63
2023/08/10 06:32:49;;;;;;;2.85;2.35;;;;;;;23.38;nan;62019.03;5012170;28;20179;-64
2023/08/10 06:35:14;;;;;;;3.97;2.92;;;;;;;23.26;nan;61953.22;5011843;28;20658;-63
2023/08/10 06:37:40;;;;;;;4.18;2.20;;;;;;;23.73;nan;62040.03;5011535;28;20219;-62
2023/08/10 06:40:08;;;;;;;3.45;2.10;;;;;;;23.91;nan;62099.09;5011834;28;20172;-62
2023/08/10 06:42:35;;;;;;;2.75;2.15;;;;;;;24.05;nan;62076.44;5007357;28;20180;-62
2023/08/10 06:45:00;;;;;;;3.35;2.47;;;;;;;24.48;nan;62239.81;5010831;28;20188;-61
2023/08/10 06:47:26;;;;;;;3.00;2.40;;;;;;;24.43;nan;62160.38;5010469;28;20638;-63
2023/08/10 06:49:51;;;;;;;11.27;2.30;;;;;;;24.54;nan;62230.41;5011320;28;20192;-61
2023/08/10 06:52:17;;;;;;;2.80;2.28;;;;;;;24.40;nan;62277.72;5011836;28;20183;-61
2023/08/10 06:54:42;;;;;;;2.15;1.83;;;;;;;24.58;nan;62302.91;5011238;28;20222;-64
2023/08/10 06:57:08;;;;;;;2.10;1.90;;;;;;;25.10;nan;62387.31;5011251;28;20200;-64
2023/08/10 06:59:33;;;;;;;3.33;2.05;;;;;;;25.13;nan;62213.47;5011350;28;20187;-65
2023/08/10 07:01:59;;;;;;;2.50;2.05;;;;;;;25.20;nan;62381.00;5010829;28;20685;-63
2023/08/10 07:04:25;;;;;;;3.15;1.90;;;;;;;25.44;nan;62332.53;5011058;28;20220;-64
2023/08/10 07:06:51;;;;;;;3.25;2.17;;;;;;;25.69;nan;62310.22;5010489;28;20360;-66
2023/08/10 07:09:16;;;;;;;4.93;2.47;;;;;;;25.60;nan;62397.38;5011040;28;20234;-62
2023/08/10 07:11:42;;;;;;;2.50;2.10;;;;;;;25.58;nan;62331.69;5011039;28;20271;-64
2023/08/10 07:14:11;;;;;;;2.25;1.92;;;;;;;25.63;nan;62379.84;5011769;28;20186;-63
2023/08/10 07:16:37;;;;;;;2.03;1.83;;;;;;;25.62;nan;62244.66;5011190;28;20656;-64
2023/08/10 07:19:03;;;;;;;2.55;1.90;;;;;;;26.01;nan;62341.50;5011367;28;20180;-64
2023/08/10 07:21:29;;;;;;;2.15;1.67;;;;;;;25.71;nan;62427.72;5012076;28;20202;-63
2023/08/10 07:23:54;;;;;;;2.20;1.77;;;;;;;25.66;nan;62440.88;5010876;28;20188;-63
2023/08/10 07:26:21;;;;;;;2.30;1.88;;;;;;;25.88;nan;62324.06;5011884;28;20552;-62
2023/08/10 07:28:47;;;;;;;2.10;1.90;;;;;;;25.63;nan;62264.69;5010900;28;20281;-62
2023/08/10 07:31:12;;;;;;;2.55;1.90;;;;;;;25.42;nan;62334.94;5011292;28;20196;-61
2023/08/10 07:33:38;;;;;;;2.25;1.70;;;;;;;24.77;nan;62209.59;5011782;28;20190;-63
2023/08/10 07:36:04;;;;;;;1.60;1.50;;;;;;;24.76;nan;62231.97;5010955;28;20215;-63
2023/08/10 07:38:30;;;;;;;2.08;1.77;;;;;;;24.46;nan;62206.16;5011051;28;20577;-66
2023/08/10 07:40:56;;;;;;;1.95;1.50;;;;;;;24.49;nan;62185.53;5010878;28;20690;-63
2023/08/10 07:43:21;;;;;;;1.73;1.48;;;;;;;24.56;nan;62228.03;5011317;28;20200;-63
2023/08/10 07:45:46;;;;;;;1.65;1.55;;;;;;;24.09;nan;62109.16;5012370;28;20164;-64
2023/08/10 07:48:12;;;;;;;1.95;1.58;;;;;;;23.76;nan;62151.03;5010705;28;20241;-63
2023/08/10 07:50:37;;;;;;;3.17;1.60;;;;;;;23.87;nan;62084.09;5011883;28;20187;-64
2023/08/10 07:53:03;;;;;;;4.38;1.60;;;;;;;23.74;nan;62197.75;5011725;28;20180;-62
2023/08/10 07:55:29;;;;;;;1.50;1.38;;;;;;;23.91;nan;62104.31;5011544;28;20176;-62
2023/08/10 07:57:54;;;;;;;1.77;1.63;;;;;;;23.81;nan;62179.63;5009116;28;20204;-62
2023/08/10 08:00:20;;;;;;;1.92;1.70;;;;;;;23.59;nan;62042.94;5010213;28;20176;-64
2023/08/10 08:02:45;;;;;;;2.08;1.75;;;;;;;23.56;nan;62036.34;5010931;28;20322;-61
2023/08/10 08:05:11;;;;;;;1.50;1.40;;;;;;;23.66;nan;62037.88;5009259;28;20237;-64
2023/08/10 08:07:37;;;;;;;4.75;1.80;;;;;;;23.63;nan;61981.72;5009204;28;20168;-62
2023/08/10 08:10:03;;;;;;;3.65;1.70;;;;;;;23.75;nan;62042.31;5009268;28;20188;-62
2023/08/10 08:12:30;;;;;;;2.45;1.73;;;;;;;23.57;nan;62186.19;5010650;28;20172;-63
2023/08/10 08:14:55;;;;;;;3.72;1.90;;;;;;;23.84;nan;62187.69;5009858;28;20208;-64
2023/08/10 08:17:22;;;;;;;2.33;1.60;;;;;;;23.61;nan;62075.94;5010103;28;20322;-61
2023/08/10 08:19:48;;;;;;;3.47;1.70;;;;;;;24.04;nan;62111.31;5010788;28;20265;-62
2023/08/10 08:22:13;;;;;;;2.92;1.88;;;;;;;23.75;nan;62040.28;5009869;28;20215;-61
2023/08/10 08:24:40;;;;;;;3.38;1.92;;;;;;;23.78;nan;62098.47;5009872;28;20211;-64
2023/08/10 08:27:05;;;;;;;1.70;1.60;;;;;;;23.73;nan;62045.81;5009756;28;20209;-61
2023/08/10 08:29:31;;;;;;;2.28;1.73;;;;;;;23.77;nan;62052.97;5010754;28;20646;-65
2023/08/10 08:31:57;;;;;;;2.40;1.98;;;;;;;23.56;nan;62211.72;5010790;28;20271;-65
2023/08/10 08:34:22;;;;;;;2.85;1.90;;;;;;;23.70;nan;62177.53;5009901;28;20680;-62
2023/08/10 08:36:48;;;;;;;2.25;1.90;;;;;;;23.28;nan;62010.81;5010335;28;20222;-65
2023/08/10 08:39:13;;;;;;;1.83;1.67;;;;;;;22.48;nan;63652.63;5009613;28;20257;-65
2023/08/10 08:41:39;;;;;;;2.10;1.60;;;;;;;23.16;nan;62067.00;5009573;28;20604;-65
2023/08/10 08:44:06;;;;;;;2.13;1.80;;;;;;;22.87;nan;62063.22;5009210;28;20659;-66
2023/08/10 08:46:33;;;;;;;2.08;1.88;;;;;;;23.52;nan;62021.94;5009264;28;20246;-66
2023/08/10 08:49:00;;;;;;;2.05;1.65;;;;;;;23.49;nan;62018.50;5009136;28;20210;-66
2023/08/10 08:51:27;;;;;;;2.28;1.70;;;;;;;23.29;nan;62038.03;5010037;28;20636;-64
2023/08/10 08:53:53;;;;;;;6.70;1.95;;;;;;;23.34;nan;61947.25;5009932;28;20215;-63
2023/08/10 08:56:19;;;;;;;2.38;1.80;;;;;;;23.30;nan;62153.34;5013019;28;20183;-63
2023/08/10 08:58:44;;;;;;;2.10;1.90;;;;;;;22.93;nan;62116.97;5013046;28;20199;-62
2023/08/10 09:01:12;;;;;;;3.92;1.98;;;;;;;23.16;nan;61971.13;5013926;28;20242;-63
2023/08/10 09:03:39;;;;;;;2.60;2.00;;;;;;;23.16;nan;61971.13;5013597;28;20184;-61
2023/08/10 09:06:04;;;;;;;2.10;1.80;;;;;;;23.04;nan;61941.25;5014361;28;20577;-62
2023/08/10 09:08:30;;;;;;;2.38;1.90;;;;;;;22.75;nan;61929.72;5014209;28;20199;-64
2023/08/10 09:10:56;;;;;;;2.17;1.88;;;;;;;22.83;nan;61946.63;5014686;28;20195;-64
2023/08/10 09:13:23;;;;;;;2.20;1.77;;;;;;;22.97;nan;61961.97;5011886;28;20652;-65
2023/08/10 09:16:03;;;;;;;2.67;1.70;;;;;;;22.94;nan;62023.69;5014319;28;20176;-63
2023/08/10 09:18:33;;;;;;;2.45;1.88;;;;;;;23.17;nan;62026.41;5014390;28;20245;-63
2023/08/10 09:21:16;;;;;;;2.40;1.80;;;;;;;23.15;nan;61985.03;5013057;28;20647;-65
2023/08/10 09:23:43;;;;;;;4.53;1.88;;;;;;;23.06;nan;62006.66;5012833;28;20185;-65
2023/08/10 09:26:10;;;;;;;1.90;1.60;;;;;;;22.98;nan;62088.22;5012618;28;20196;-63
2023/08/10 09:28:37;;;;;;;2.88;1.63;;;;;;;22.77;nan;61940.38;5013101;28;20231;-65
2023/08/10 09:31:04;;;;;;;1.70;1.60;;;;;;;22.73;nan;61963.91;5012787;28;20183;-62
2023/08/10 09:33:32;;;;;;;1.95;1.67;;;;;;;22.39;nan;62022.72;5013859;28;20176;-64
2023/08/10 09:36:01;;;;;;;1.80;1.60;;;;;;;22.49;nan;62210.63;5012492;28;20238;-66
2023/08/10 09:38:27;;;;;;;1.60;1.40;;;;;;;22.59;nan;62024.06;5013336;28;20192;-65
2023/08/10 09:41:10;;;;;;;2.65;1.67;;;;;;;22.40;nan;61891.06;5013631;28;20184;-66
2023/08/10 09:43:37;;;;;;;2.80;1.52;;;;;;;22.76;nan;61996.53;5007296;28;20175;-63
2023/08/10 09:46:04;;;;;;;1.52;1.30;;;;;;;23.10;nan;62028.88;5012647;28;20219;-62
2023/08/10 09:48:52;;;;;;;1.65;1.50;;;;;;;23.45;nan;62092.22;5013256;28;20207;-62
2023/08/10 09:51:17;;;;;;;1.60;1.50;;;;;;;23.61;nan;62195.97;5013311;28;20287;-64
2023/08/10 09:53:43;;;;;;;2.75;1.67;;;;;;;23.90;nan;62103.75;4995305;28;20274;-65
2023/08/10 09:56:09;;;;;;;2.13;1.60;;;;;;;24.00;nan;62127.63;5012264;28;20643;-64
2023/08/10 09:58:36;;;;;;;1.50;1.40;;;;;;;23.11;nan;61993.53;5012131;28;20222;-64
2023/08/10 10:01:03;;;;;;;2.22;1.77;;;;;;;22.93;nan;61986.09;5012236;28;20267;-67
2023/08/10 10:03:31;;;;;;;2.50;1.45;;;;;;;23.13;nan;62019.25;5013268;28;20241;-62
2023/08/10 10:05:57;;;;;;;2.08;1.70;;;;;;;23.16;nan;61970.53;5012672;28;20567;-62
2023/08/10 10:08:26;;;;;;;2.05;1.52;;;;;;;22.96;nan;61919.69;5012454;28;20187;-62
2023/08/10 10:10:54;;;;;;;1.90;1.70;;;;;;;22.59;nan;61971.97;5012337;28;20192;-62
2023/08/10 10:13:21;;;;;;;1.85;1.60;;;;;;;22.33;nan;61840.88;5012585;28;20253;-62
2023/08/10 10:15:48;;;;;;;2.15;1.90;;;;;;;22.38;nan;61924.69;5013372;28;20176;-64
2023/08/10 10:18:14;;;;;;;2.47;1.63;;;;;;;22.35;nan;61927.03;5012706;28;20212;-64
2023/08/10 10:20:42;;;;;;;1.98;1.60;;;;;;;22.23;nan;61899.81;5013428;28;20492;-64
2023/08/10 10:23:15;;;;;;;2.63;1.75;;;;;;;22.35;nan;61918.66;5012391;28;20647;-63
2023/08/10 10:25:55;;;;;;;3.17;1.60;;;;;;;22.02;nan;61998.81;5012989;28;20681;-65
2023/08/10 10:28:21;;;;;;;2.65;1.83;;;;;;;21.93;nan;61993.78;5012991;28;20609;-64
2023/08/10 10:31:17;;;;;;;2.47;2.03;;;;;;;21.80;nan;61750.06;5011510;28;20267;-64
2023/08/10 10:33:55;;;;;;;1.80;1.65;;;;;;;22.08;nan;61854.13;5012768;28;20526;-64
2023/08/10 10:36:21;;;;;;;2.33;1.80;;;;;;;21.98;nan;62070.31;5012199;28;20532;-65
2023/08/10 10:38:49;;;;;;;2.10;1.80;;;;;;;22.20;nan;61880.78;5011894;28;20714;-64
2023/08/10 10:41:16;;;;;;;2.08;1.65;;;;;;;22.00;nan;61968.50;5011784;28;20538;-65
2023/08/10 10:43:44;;;;;;;2.50;1.83;;;;;;;22.28;nan;61869.06;5012322;28;20188;-65
2023/08/10 10:46:32;;;;;;;2.25;1.70;;;;;;;22.55;nan;61953.84;5011636;28;20211;-64
2023/08/10 10:48:58;;;;;;;2.55;1.95;;;;;;;22.38;nan;61859.59;5011051;28;20188;-64
2023/08/10 10:51:25;;;;;;;2.38;1.83;;;;;;;22.13;nan;61911.88;5011153;28;20662;-63
2023/08/10 10:53:55;;;;;;;1.77;1.67;;;;;;;21.85;nan;61855.16;5011255;28;20184;-64
2023/08/10 10:56:21;;;;;;;2.58;2.08;;;;;;;21.89;nan;61775.88;5011209;28;20616;-65
2023/08/10 10:58:50;;;;;;;2.83;2.05;;;;;;;21.83;nan;61863.28;5011387;28;20262;-66
2023/08/10 11:01:21;;;;;;;2.40;1.92;;;;;;;21.54;nan;61809.53;5011462;28;20282;-64
2023/08/10 11:03:56;;;;;;;2.80;2.20;;;;;;;21.55;nan;61940.69;5012076;28;20180;-66
2023/08/10 11:06:25;;;;;;;3.25;2.10;;;;;;;21.46;nan;61775.03;5012320;28;20182;-65
2023/08/10 11:08:53;;;;;;;2.33;1.90;;;;;;;21.38;nan;61771.16;5011036;28;20187;-65
2023/08/10 11:11:18;;;;;;;3.22;2.20;;;;;;;21.73;nan;61814.94;5011996;28;20246;-63
2023/08/10 11:13:44;;;;;;;2.83;1.85;;;;;;;21.59;nan;61867.22;5012374;28;20187;-65
2023/08/10 11:16:10;;;;;;;2.28;2.00;;;;;;;21.38;nan;61900.56;5011421;28;20223;-63
2023/08/10 11:18:37;;;;;;;3.35;1.88;;;;;;;21.66;nan;62061.88;5011663;28;20199;-63
2023/08/10 11:21:06;;;;;;;2.90;2.20;;;;;;;21.76;nan;61792.91;5012051;28;20191;-63
2023/08/10 11:23:31;;;;;;;3.05;2.42;;;;;;;21.94;nan;61953.28;5011658;28;20188;-64
2023/08/10 11:25:57;;;;;;;2.30;1.75;;;;;;;21.99;nan;61704.53;5010881;28;20187;-63
2023/08/10 11:28:25;;;;;;;2.45;1.85;;;;;;;22.14;nan;61991.66;5009180;28;20801;-63
2023/08/10 11:30:50;;;;;;;3.17;2.10;;;;;;;21.99;nan;61821.63;5010646;28;20180;-63
2023/08/10 11:33:16;;;;;;;2.95;2.15;;;;;;;22.07;nan;62123.66;5010821;28;20184;-67
2023/08/10 11:35:44;;;;;;;2.38;1.90;;;;;;;22.23;nan;61876.38;5012100;28;20202;-64
2023/08/10 11:38:09;;;;;;;3.83;1.90;;;;;;;22.03;nan;61999.97;5010928;28;20636;-65
2023/08/10 11:40:35;;;;;;;2.38;1.83;;;;;;;22.33;nan;61911.19;5011783;28;20644;-65
2023/08/10 11:43:11;;;;;;;2.83;2.10;;;;;;;22.37;nan;61885.06;5010753;28;20195;-65
2023/08/10 11:45:38;;;;;;;2.50;2.10;;;;;;;22.76;nan;61985.56;5011307;28;20340;-63
2023/08/10 11:48:07;;;;;;;2.35;1.98;;;;;;;22.71;nan;61982.47;5011498;28;20222;-63
2023/08/10 11:50:33;;;;;;;2.50;1.90;;;;;;;22.67;nan;61861.25;5011537;28;20187;-62